createdAt,value
2017-10-06T00:02:10.517Z,48.93
2017-10-06T00:04:39.893Z,46.77
2017-10-06T00:07:08.617Z,45.47
2017-10-06T00:09:36.693Z,47.03
2017-10-06T00:12:04.625Z,47.13
2017-10-06T00:14:33.002Z,45.37
2017-10-06T00:17:01.078Z,45.27
2017-10-06T00:19:29.735Z,45.77
2017-10-06T00:21:57.700Z,45.47
2017-10-06T00:24:25.809Z,48.07
2017-10-06T00:26:53.769Z,46.63
2017-10-06T00:29:21.728Z,49.10
2017-10-06T00:31:50.433Z,48.00
2017-10-06T00:34:19.635Z,46.30
2017-10-06T00:36:48.213Z,47.03
2017-10-06T00:39:16.329Z,48.43
2017-10-06T00:41:44.314Z,47.03
2017-10-06T00:44:12.313Z,51.70
2017-10-06T00:46:41.195Z,47.53
2017-10-06T00:49:09.873Z,48.03
2017-10-06T00:51:37.949Z,49.60
2017-10-06T00:54:06.054Z,51.57
2017-10-06T00:56:34.145Z,47.87
2017-10-06T00:59:02.285Z,48.43
2017-10-06T01:01:30.961Z,50.50
2017-10-06T01:03:58.893Z,49.97
2017-10-06T01:06:27.707Z,51.87
2017-10-06T01:08:55.845Z,52.17
2017-10-06T01:11:24.634Z,49.27
2017-10-06T01:13:53.333Z,49.40
2017-10-06T01:16:22.444Z,50.57
2017-10-06T01:18:50.385Z,49.67
2017-10-06T01:21:19.040Z,49.87
2017-10-06T01:23:47.850Z,47.20
2017-10-06T01:26:16.029Z,48.87
2017-10-06T01:28:44.108Z,49.20
2017-10-06T01:31:12.857Z,47.27
2017-10-06T01:33:41.537Z,50.97
2017-10-06T01:36:10.053Z,50.93
2017-10-06T01:38:38.713Z,51.77
2017-10-06T01:41:07.397Z,50.00
2017-10-06T01:43:35.381Z,49.63
2017-10-06T01:46:03.506Z,49.80
2017-10-06T01:48:32.305Z,51.07
2017-10-06T01:51:00.265Z,50.10
2017-10-06T01:53:29.708Z,46.43
2017-10-06T01:55:58.397Z,49.87
2017-10-06T01:58:26.345Z,48.23
2017-10-06T02:00:54.681Z,44.23
2017-10-06T02:03:23.153Z,43.50
2017-10-06T02:05:51.611Z,47.30
2017-10-06T02:08:20.496Z,45.07
2017-10-06T02:10:49.131Z,48.43
2017-10-06T02:13:18.248Z,52.40
2017-10-06T02:15:47.785Z,54.53
2017-10-06T02:18:17.321Z,53.73
2017-10-06T02:20:46.241Z,61.80
2017-10-06T02:23:15.967Z,61.10
2017-10-06T02:25:44.793Z,60.00
2017-10-06T02:28:12.749Z,53.47
2017-10-06T02:30:41.458Z,50.80
2017-10-06T02:33:10.066Z,53.17
2017-10-06T02:35:38.649Z,51.83
2017-10-06T02:38:06.853Z,52.07
2017-10-06T02:40:35.539Z,50.10
2017-10-06T02:43:04.223Z,51.23
2017-10-06T02:45:33.069Z,53.27
2017-10-06T02:48:01.014Z,50.50
2017-10-06T02:50:29.617Z,50.40
2017-10-06T02:52:57.665Z,48.30
2017-10-06T02:55:26.173Z,44.43
2017-10-06T02:57:54.925Z,45.53
2017-10-06T03:00:23.961Z,40.37
2017-10-06T03:02:51.881Z,40.90
2017-10-06T03:05:21.021Z,36.67
2017-10-06T03:07:49.709Z,33.53
2017-10-06T03:10:21.146Z,33.70
2017-10-06T03:12:56.938Z,30.40
2017-10-06T03:15:25.777Z,30.87
2017-10-06T03:17:58.488Z,29.37
2017-10-06T03:20:31.446Z,29.50
2017-10-06T03:23:07.017Z,29.40
2017-10-06T03:25:36.258Z,30.27
2017-10-06T03:28:10.633Z,30.40
2017-10-06T03:30:38.809Z,27.30
2017-10-06T03:33:26.029Z,25.37
2017-10-06T03:36:02.189Z,27.67
2017-10-06T03:38:35.457Z,22.40
2017-10-06T03:41:12.963Z,22.87
2017-10-06T03:43:41.074Z,21.70
2017-10-06T03:46:12.356Z,19.57
2017-10-06T03:48:40.525Z,20.53
2017-10-06T03:51:09.790Z,17.87
2017-10-06T03:53:39.600Z,16.77
2017-10-06T03:56:11.157Z,16.30
2017-10-06T03:58:41.397Z,13.37
2017-10-06T04:01:19.541Z,14.83
2017-10-06T04:03:50.075Z,13.57
2017-10-06T04:06:25.284Z,12.13
2017-10-06T04:08:53.445Z,12.00
2017-10-06T04:11:25.382Z,10.93
2017-10-06T04:14:00.929Z,10.30
2017-10-06T04:16:32.253Z,10.30
2017-10-06T04:19:01.002Z,10.13
2017-10-06T04:21:29.022Z,8.27
2017-10-06T04:23:57.748Z,9.07
2017-10-06T04:26:26.741Z,8.90
2017-10-06T04:28:55.421Z,8.43
2017-10-06T04:31:23.421Z,8.50
2017-10-06T04:33:51.897Z,8.60
2017-10-06T04:36:20.982Z,9.13
2017-10-06T04:38:50.958Z,9.00
2017-10-06T04:41:20.477Z,8.50
2017-10-06T04:43:49.142Z,8.53
2017-10-06T04:46:19.314Z,8.30
2017-10-06T04:48:47.821Z,8.00
2017-10-06T04:51:16.410Z,8.17
2017-10-06T04:53:45.000Z,8.73
2017-10-06T04:56:13.534Z,7.67
2017-10-06T04:58:42.799Z,9.20
2017-10-06T05:01:12.508Z,8.17
2017-10-06T05:03:41.993Z,10.00
2017-10-06T05:06:10.318Z,9.43
2017-10-06T05:08:40.029Z,8.77
2017-10-06T05:11:08.876Z,10.10
2017-10-06T05:13:37.394Z,10.93
2017-10-06T05:16:08.864Z,11.50
2017-10-06T05:18:37.533Z,11.33
2017-10-06T05:21:07.861Z,12.03
2017-10-06T05:23:37.506Z,11.20
2017-10-06T05:26:07.226Z,11.93
2017-10-06T05:28:35.557Z,15.27
2017-10-06T05:31:04.954Z,11.30
2017-10-06T05:33:34.229Z,15.10
2017-10-06T05:36:03.623Z,16.00
2017-10-06T05:38:34.554Z,15.97
2017-10-06T05:41:02.993Z,15.80
2017-10-06T05:43:31.305Z,15.70
2017-10-06T05:46:00.089Z,14.57
2017-10-06T05:48:28.282Z,14.40
2017-10-06T05:50:57.629Z,15.80
2017-10-06T05:53:27.628Z,15.07
2017-10-06T05:55:57.098Z,14.87
2017-10-06T05:58:27.622Z,13.07
2017-10-06T06:00:57.921Z,13.10
2017-10-06T06:03:27.199Z,12.43
2017-10-06T06:05:55.705Z,14.30
2017-10-06T06:08:24.661Z,13.67
2017-10-06T06:10:55.417Z,12.10
2017-10-06T06:13:26.433Z,10.90
2017-10-06T06:15:55.669Z,11.77
2017-10-06T06:18:24.366Z,13.07
2017-10-06T06:20:53.409Z,12.97
2017-10-06T06:23:21.529Z,13.50
2017-10-06T06:25:50.225Z,13.50
2017-10-06T06:28:20.159Z,13.20
2017-10-06T06:30:50.781Z,11.53
2017-10-06T06:33:21.753Z,10.90
2017-10-06T06:35:50.377Z,12.80
2017-10-06T06:38:22.489Z,11.37
2017-10-06T06:40:51.449Z,9.80
2017-10-06T06:43:21.025Z,8.90
2017-10-06T06:45:50.297Z,7.50
2017-10-06T06:48:18.777Z,8.43
2017-10-06T06:50:46.813Z,9.70
2017-10-06T06:53:16.097Z,10.43
2017-10-06T06:55:46.278Z,9.93
2017-10-06T06:58:14.929Z,9.27
2017-10-06T07:00:44.193Z,8.07
2017-10-06T07:03:12.653Z,9.13
2017-10-06T07:05:41.613Z,8.90
2017-10-06T07:08:10.738Z,8.20
2017-10-06T07:10:39.549Z,9.43
2017-10-06T07:13:08.249Z,10.10
2017-10-06T07:15:36.437Z,10.00
2017-10-06T07:18:05.245Z,9.70
2017-10-06T07:20:33.726Z,7.93
2017-10-06T07:23:02.614Z,9.10
2017-10-06T07:25:32.563Z,7.70
2017-10-06T07:28:03.585Z,8.73
2017-10-06T07:30:33.126Z,8.30
2017-10-06T07:33:04.957Z,7.93
2017-10-06T07:35:33.521Z,8.43
2017-10-06T07:38:02.881Z,7.67
2017-10-06T07:40:31.587Z,9.60
2017-10-06T07:43:00.905Z,8.03
2017-10-06T07:45:31.023Z,9.53
2017-10-06T07:47:59.613Z,7.80
2017-10-06T07:50:29.085Z,8.40
2017-10-06T07:52:57.613Z,8.43
2017-10-06T07:55:26.617Z,7.93
2017-10-06T07:57:56.261Z,8.13
2017-10-06T08:00:25.080Z,8.93
2017-10-06T08:02:54.553Z,7.50
2017-10-06T08:05:23.175Z,8.53
2017-10-06T08:07:51.246Z,9.00
2017-10-06T08:10:19.769Z,8.73
2017-10-06T08:12:48.614Z,9.30
2017-10-06T08:15:18.881Z,8.87
2017-10-06T08:17:48.134Z,10.00
2017-10-06T08:20:18.257Z,9.30
2017-10-06T08:22:47.389Z,8.37
2017-10-06T08:25:15.900Z,8.10
2017-10-06T08:27:43.858Z,9.30
2017-10-06T08:30:12.589Z,9.33
2017-10-06T08:32:40.881Z,9.60
2017-10-06T08:35:10.251Z,9.27
2017-10-06T08:37:38.942Z,8.57
2017-10-06T08:40:07.237Z,9.03
2017-10-06T08:42:35.357Z,11.07
2017-10-06T08:45:04.101Z,8.80
2017-10-06T08:47:32.201Z,8.87
2017-10-06T08:50:00.942Z,8.30
2017-10-06T08:52:28.945Z,7.83
2017-10-06T08:54:57.070Z,8.40
2017-10-06T08:57:25.078Z,7.53
2017-10-06T08:59:53.049Z,7.10
2017-10-06T09:02:21.750Z,7.33
2017-10-06T09:04:49.786Z,8.40
2017-10-06T09:07:17.813Z,7.00
2017-10-06T09:09:46.667Z,7.63
2017-10-06T09:12:27.398Z,8.30
2017-10-06T09:14:55.909Z,7.93
2017-10-06T09:17:24.687Z,7.63
2017-10-06T09:19:52.669Z,8.00
2017-10-06T09:22:20.821Z,7.60
2017-10-06T09:24:48.857Z,9.13
2017-10-06T09:27:17.467Z,8.00
2017-10-06T09:29:46.900Z,8.80
2017-10-06T09:32:15.684Z,8.50
2017-10-06T09:34:44.149Z,9.17
2017-10-06T09:37:13.065Z,7.87
2017-10-06T09:39:41.033Z,8.10
2017-10-06T09:42:08.988Z,8.77
2017-10-06T09:44:37.080Z,9.20
2017-10-06T09:47:05.697Z,8.60
2017-10-06T09:49:34.216Z,7.63
2017-10-06T09:52:03.689Z,8.87
2017-10-06T09:54:31.691Z,7.67
2017-10-06T09:57:00.357Z,8.63
2017-10-06T09:59:29.153Z,8.07
2017-10-06T10:01:58.305Z,9.70
2017-10-06T10:04:26.885Z,9.10
2017-10-06T10:06:55.741Z,8.80
2017-10-06T10:09:24.489Z,9.87
2017-10-06T10:11:52.409Z,9.23
2017-10-06T10:14:21.949Z,9.90
2017-10-06T10:16:50.629Z,9.50
2017-10-06T10:19:18.633Z,9.30
2017-10-06T10:21:47.390Z,9.80
2017-10-06T10:24:15.317Z,11.13
2017-10-06T10:26:44.045Z,10.80
2017-10-06T10:29:12.838Z,10.27
2017-10-06T10:31:41.210Z,11.13
2017-10-06T10:34:09.173Z,10.70
2017-10-06T10:36:37.778Z,11.33
2017-10-06T10:39:05.926Z,11.90
2017-10-06T10:41:33.897Z,11.90
2017-10-06T10:44:02.709Z,11.90
2017-10-06T10:46:31.257Z,12.23
2017-10-06T10:49:00.126Z,12.63
2017-10-06T10:51:31.934Z,12.23
2017-10-06T10:54:00.137Z,12.60
2017-10-06T10:56:28.876Z,13.03
2017-10-06T10:58:57.792Z,12.27
2017-10-06T11:01:26.577Z,13.30
2017-10-06T11:03:54.953Z,12.93
2017-10-06T11:06:23.889Z,12.67
2017-10-06T11:08:52.339Z,13.37
2017-10-06T11:11:21.221Z,13.23
2017-10-06T11:13:49.485Z,14.60
2017-10-06T11:16:18.749Z,15.63
2017-10-06T11:18:47.227Z,15.50
2017-10-06T11:21:16.089Z,15.20
2017-10-06T11:23:44.274Z,15.90
2017-10-06T11:26:12.393Z,14.53
2017-10-06T11:28:41.401Z,15.73
2017-10-06T11:31:10.865Z,15.53
2017-10-06T11:33:39.589Z,16.73
2017-10-06T11:36:08.957Z,16.87
2017-10-06T11:38:37.185Z,15.30
2017-10-06T11:41:05.498Z,14.67
2017-10-06T11:43:33.665Z,17.23
2017-10-06T11:46:02.141Z,17.30
2017-10-06T11:48:30.242Z,17.97
2017-10-06T11:50:58.833Z,17.00
2017-10-06T11:53:27.314Z,17.07
2017-10-06T11:55:55.421Z,18.93
2017-10-06T11:58:24.329Z,16.30
2017-10-06T12:00:52.497Z,18.63
2017-10-06T12:03:20.597Z,17.67
2017-10-06T12:05:48.810Z,18.33
2017-10-06T12:08:16.870Z,18.73
2017-10-06T12:10:45.021Z,19.23
2017-10-06T12:13:13.357Z,18.73
2017-10-06T12:15:42.285Z,18.00
2017-10-06T12:18:10.522Z,17.70
2017-10-06T12:20:39.605Z,17.30
2017-10-06T12:23:07.717Z,16.77
2017-10-06T12:25:35.729Z,16.90
2017-10-06T12:28:04.017Z,17.80
2017-10-06T12:30:32.193Z,17.53
2017-10-06T12:33:00.316Z,18.47
2017-10-06T12:35:28.549Z,17.57
2017-10-06T12:37:56.984Z,18.17
2017-10-06T12:40:33.160Z,18.90
2017-10-06T12:43:01.562Z,17.60
2017-10-06T12:45:29.541Z,16.60
2017-10-06T12:47:57.761Z,18.30
2017-10-06T12:50:26.277Z,17.27
2017-10-06T12:52:54.858Z,19.07
2017-10-06T12:55:24.530Z,18.90
2017-10-06T12:57:52.861Z,18.10
2017-10-06T13:00:21.089Z,21.20
2017-10-06T13:02:49.997Z,19.50
2017-10-06T13:05:18.630Z,18.80
2017-10-06T13:07:46.637Z,18.33
2017-10-06T13:10:17.158Z,18.80
2017-10-06T13:12:46.009Z,20.37
2017-10-06T13:15:15.309Z,19.83
2017-10-06T13:17:47.860Z,21.10
2017-10-06T13:20:15.969Z,21.03
2017-10-06T13:22:44.626Z,21.47
2017-10-06T13:25:13.113Z,20.23
2017-10-06T13:27:41.120Z,20.63
2017-10-06T13:30:09.105Z,21.53
2017-10-06T13:32:37.414Z,21.70
2017-10-06T13:35:05.417Z,21.10
2017-10-06T13:37:33.994Z,21.43
2017-10-06T13:40:02.414Z,22.93
2017-10-06T13:42:30.361Z,22.67
2017-10-06T13:44:58.461Z,23.40
2017-10-06T13:47:26.537Z,23.00
2017-10-06T13:49:55.197Z,22.13
2017-10-06T13:52:23.825Z,23.00
2017-10-06T13:54:53.166Z,23.63
2017-10-06T13:57:21.845Z,24.10
2017-10-06T13:59:49.838Z,24.83
2017-10-06T14:02:17.930Z,25.47
2017-10-06T14:04:46.443Z,25.00
2017-10-06T14:07:15.810Z,23.73
2017-10-06T14:09:44.781Z,24.23
2017-10-06T14:12:13.456Z,23.93
2017-10-06T14:14:41.374Z,24.70
2017-10-06T14:17:09.494Z,25.97
2017-10-06T14:19:37.445Z,27.53
2017-10-06T14:22:05.890Z,25.90
2017-10-06T14:24:34.545Z,24.43
2017-10-06T14:27:03.233Z,24.93
2017-10-06T14:29:31.206Z,26.90
2017-10-06T14:31:59.327Z,25.30
2017-10-06T14:34:28.025Z,23.63
2017-10-06T14:36:57.257Z,25.00
2017-10-06T14:39:26.874Z,25.63
2017-10-06T14:41:55.450Z,26.20
2017-10-06T14:44:23.449Z,25.07
2017-10-06T14:46:51.633Z,26.10
2017-10-06T14:49:19.625Z,25.90
2017-10-06T14:51:48.890Z,25.90
2017-10-06T14:54:17.625Z,26.07
2017-10-06T14:56:47.000Z,25.67
2017-10-06T14:59:14.950Z,25.03
2017-10-06T15:01:43.013Z,25.30
2017-10-06T15:04:12.906Z,26.43
2017-10-06T15:06:41.333Z,25.20
2017-10-06T15:09:10.162Z,27.17
2017-10-06T15:11:39.533Z,26.20
2017-10-06T15:14:08.149Z,26.63
2017-10-06T15:16:37.005Z,28.10
2017-10-06T15:19:05.052Z,27.50
2017-10-06T15:21:33.086Z,25.13
2017-10-06T15:24:02.811Z,23.93
2017-10-06T15:26:31.113Z,26.37
2017-10-06T15:28:59.697Z,25.80
2017-10-06T15:31:27.773Z,26.60
2017-10-06T15:33:55.702Z,26.93
2017-10-06T15:36:25.041Z,26.40
2017-10-06T15:38:53.900Z,28.10
2017-10-06T15:41:23.236Z,27.47
2017-10-06T15:43:51.173Z,28.00
2017-10-06T15:46:20.469Z,28.80
2017-10-06T15:48:49.465Z,26.87
2017-10-06T15:51:18.673Z,24.60
2017-10-06T15:53:47.389Z,22.10
2017-10-06T15:56:16.001Z,19.80
2017-10-06T15:58:44.550Z,19.77
2017-10-06T16:01:13.034Z,21.90
2017-10-06T16:03:40.993Z,20.87
2017-10-06T16:06:08.985Z,21.27
2017-10-06T16:08:37.565Z,21.00
2017-10-06T16:11:05.977Z,21.00
2017-10-06T16:13:34.697Z,21.27
2017-10-06T16:16:05.125Z,22.07
2017-10-06T16:18:33.981Z,20.57
2017-10-06T16:21:01.933Z,21.00
2017-10-06T16:23:30.778Z,20.10
2017-10-06T16:26:00.045Z,20.83
2017-10-06T16:28:28.566Z,20.73
2017-10-06T16:30:58.239Z,20.37
2017-10-06T16:33:26.177Z,21.50
2017-10-06T16:35:54.183Z,22.27
2017-10-06T16:38:22.765Z,22.23
2017-10-06T16:40:51.330Z,21.50
2017-10-06T16:43:20.077Z,21.37
2017-10-06T16:45:49.613Z,22.63
2017-10-06T16:48:18.305Z,22.00
2017-10-06T16:50:46.369Z,21.30
2017-10-06T16:53:15.174Z,22.20
2017-10-06T16:55:43.101Z,23.87
2017-10-06T16:58:12.533Z,21.53
2017-10-06T17:00:41.162Z,22.80
2017-10-06T17:03:10.325Z,21.47
2017-10-06T17:05:38.325Z,20.30
2017-10-06T17:08:06.877Z,21.20
2017-10-06T17:10:35.361Z,22.43
2017-10-06T17:13:03.940Z,24.23
2017-10-06T17:15:33.482Z,22.13
2017-10-06T17:18:02.205Z,21.30
2017-10-06T17:20:30.905Z,22.53
2017-10-06T17:22:58.961Z,22.80
2017-10-06T17:25:28.129Z,22.97
2017-10-06T17:27:56.576Z,24.13
2017-10-06T17:30:26.229Z,21.87
2017-10-06T17:32:54.874Z,21.97
2017-10-06T17:35:22.826Z,23.33
2017-10-06T17:37:50.921Z,22.40
2017-10-06T17:40:19.609Z,21.07
2017-10-06T17:42:48.261Z,20.90
2017-10-06T17:45:17.701Z,20.60
2017-10-06T17:47:46.357Z,20.67
2017-10-06T17:50:15.089Z,19.87
2017-10-06T17:52:43.429Z,21.50
2017-10-06T17:55:11.937Z,23.70
2017-10-06T17:57:40.414Z,21.63
2017-10-06T18:00:09.930Z,22.13
2017-10-06T18:02:38.330Z,18.60
2017-10-06T18:05:06.257Z,19.43
2017-10-06T18:07:34.474Z,20.50
2017-10-06T18:10:03.144Z,19.87
2017-10-06T18:12:31.718Z,18.83
2017-10-06T18:14:59.792Z,19.93
2017-10-06T18:17:27.794Z,18.00
2017-10-06T18:19:55.749Z,19.33
2017-10-06T18:22:23.789Z,18.93
2017-10-06T18:24:51.745Z,18.70
2017-10-06T18:27:21.253Z,19.97
2017-10-06T18:29:50.701Z,16.70
2017-10-06T18:32:19.381Z,16.00
2017-10-06T18:34:47.353Z,16.80
2017-10-06T18:37:15.429Z,15.70
2017-10-06T18:39:43.357Z,16.63
2017-10-06T18:42:12.729Z,16.87
2017-10-06T18:44:41.497Z,15.73
2017-10-06T18:47:09.466Z,15.67
2017-10-06T18:49:38.034Z,15.33
2017-10-06T18:52:06.106Z,14.90
2017-10-06T18:54:34.245Z,15.80
2017-10-06T18:57:02.951Z,15.10
2017-10-06T18:59:31.722Z,14.73
2017-10-06T19:02:00.893Z,17.10
2017-10-06T19:04:29.449Z,15.60
2017-10-06T19:06:57.556Z,15.00
2017-10-06T19:09:25.521Z,15.50
2017-10-06T19:11:55.366Z,15.03
2017-10-06T19:14:24.933Z,15.13
2017-10-06T19:16:52.876Z,15.07
2017-10-06T19:19:20.980Z,15.50
2017-10-06T19:21:49.029Z,14.77
2017-10-06T19:24:17.011Z,16.00
2017-10-06T19:26:44.995Z,15.10
2017-10-06T19:29:13.867Z,15.53
2017-10-06T19:31:42.921Z,15.73
2017-10-06T19:34:11.789Z,13.43
2017-10-06T19:36:40.029Z,13.93
2017-10-06T19:39:08.302Z,13.07
2017-10-06T19:41:36.793Z,13.37
2017-10-06T19:44:05.045Z,14.63
2017-10-06T19:46:33.597Z,12.20
2017-10-06T19:49:03.930Z,14.67
2017-10-06T19:51:32.881Z,16.03
2017-10-06T19:54:00.849Z,14.57
2017-10-06T19:56:28.774Z,13.90
2017-10-06T19:58:58.355Z,14.10
2017-10-06T20:01:27.725Z,13.77
2017-10-06T20:03:56.170Z,13.67
2017-10-06T20:06:25.021Z,13.10
2017-10-06T20:08:53.017Z,13.20
2017-10-06T20:11:21.725Z,14.60
2017-10-06T20:13:49.833Z,12.83
2017-10-06T20:16:17.793Z,12.47
2017-10-06T20:18:45.765Z,11.50
2017-10-06T20:21:13.997Z,11.67
2017-10-06T20:23:42.740Z,12.60
2017-10-06T20:26:10.722Z,12.40
2017-10-06T20:28:39.220Z,11.73
2017-10-06T20:31:07.161Z,12.90
2017-10-06T20:33:35.084Z,11.80
2017-10-06T20:36:04.529Z,12.80
2017-10-06T20:38:33.197Z,11.73
2017-10-06T20:41:01.197Z,12.00
2017-10-06T20:43:29.321Z,12.43
2017-10-06T20:45:58.696Z,13.07
2017-10-06T20:48:26.829Z,10.57
2017-10-06T20:50:55.629Z,12.87
2017-10-06T20:53:24.276Z,12.70
2017-10-06T20:55:52.997Z,12.17
2017-10-06T20:58:21.125Z,10.80
2017-10-06T21:00:49.725Z,11.17
2017-10-06T21:03:19.093Z,11.70
2017-10-06T21:18:34.090Z,11.53
2017-10-06T21:21:03.456Z,11.50
2017-10-06T21:23:31.577Z,12.33
2017-10-06T21:25:59.704Z,11.97
2017-10-06T21:28:27.812Z,12.83
2017-10-06T21:30:56.976Z,12.67
2017-10-06T21:33:25.065Z,12.17
2017-10-06T21:35:53.021Z,13.00
2017-10-06T21:38:21.345Z,13.03
2017-10-06T21:40:49.452Z,13.20
2017-10-06T21:43:17.402Z,13.67
2017-10-06T21:45:46.165Z,14.33
2017-10-06T21:48:15.612Z,15.03
2017-10-06T21:50:44.261Z,15.30
2017-10-06T21:53:13.420Z,15.37
2017-10-06T21:55:41.453Z,13.97
2017-10-06T21:58:09.417Z,13.70
2017-10-06T22:00:37.380Z,15.17
2017-10-06T22:03:05.583Z,15.00
2017-10-06T22:05:33.565Z,14.60
2017-10-06T22:08:01.520Z,14.20
2017-10-06T22:10:29.561Z,16.27
2017-10-06T22:12:58.256Z,14.23
2017-10-06T22:15:26.256Z,14.37
2017-10-06T22:17:54.937Z,15.30
2017-10-06T22:20:23.450Z,15.80
2017-10-06T22:22:51.404Z,16.77
2017-10-06T22:25:20.084Z,15.37
2017-10-06T22:27:48.049Z,16.77
2017-10-06T22:30:16.006Z,14.77
2017-10-06T22:32:44.605Z,16.73
2017-10-06T22:35:13.121Z,14.37
2017-10-06T22:37:41.841Z,15.37
2017-10-06T22:40:11.284Z,14.63
2017-10-06T22:42:39.968Z,14.70
2017-10-06T22:45:07.943Z,15.70
2017-10-06T22:47:36.061Z,14.97
2017-10-06T22:50:04.497Z,16.60
2017-10-06T22:52:33.081Z,15.80
2017-10-06T22:55:01.104Z,15.67
2017-10-06T22:57:29.797Z,15.27
2017-10-06T22:59:58.493Z,16.23
2017-10-06T23:02:27.929Z,15.87
2017-10-06T23:04:56.612Z,15.63
2017-10-06T23:07:25.077Z,15.20
2017-10-06T23:09:53.888Z,16.57
2017-10-06T23:12:21.828Z,16.30
2017-10-06T23:14:50.528Z,16.93
2017-10-06T23:17:19.132Z,16.73
2017-10-06T23:19:47.813Z,16.40
2017-10-06T23:22:16.229Z,17.50
2017-10-06T23:24:44.888Z,16.17
2017-10-06T23:27:13.471Z,18.70
2017-10-06T23:29:41.537Z,20.17
2017-10-06T23:32:10.260Z,19.67
2017-10-06T23:34:38.913Z,20.93
2017-10-06T23:37:07.367Z,23.23
2017-10-06T23:39:37.076Z,23.30
2017-10-06T23:42:06.340Z,23.23
2017-10-06T23:44:34.324Z,25.03
2017-10-06T23:47:02.425Z,27.70
2017-10-06T23:49:31.789Z,25.97
2017-10-06T23:52:00.512Z,26.20
2017-10-06T23:54:29.955Z,27.87
2017-10-06T23:56:57.896Z,27.40
2017-10-06T23:59:25.816Z,27.40
